Time;durP1;ratioP1;P1;durP2;ratioP2;P2;SDS_P1;SDS_P2;PMS_P1;PMS_P2;Temp;Humidity;BMP_temperature;BMP_pressure;BME280_temperature;BME280_humidity;BME280_pressure;Samples;Min_cycle;Max_cycle;Signal;HPM_P1;HPM_P2
2023/05/22 00:01:51;;;;;;;11.77;10.50;;;;;14.20;96832.00;;;;5044304;28;20207;-72
2023/05/22 00:04:42;;;;;;;12.40;10.97;;;;;14.20;96830.00;;;;5045691;28;20224;-74
2023/05/22 00:07:31;;;;;;;16.23;11.33;;;;;14.20;96831.00;;;;5023474;28;20248;-71
2023/05/22 00:10:20;;;;;;;11.67;10.10;;;;;14.40;96834.00;;;;5037457;28;20691;-71
2023/05/22 00:13:09;;;;;;;13.57;11.30;;;;;14.40;96824.00;;;;5033918;28;20224;-71
2023/05/22 00:15:58;;;;;;;13.67;11.13;;;;;14.10;96823.00;;;;5045990;28;20231;-75
2023/05/22 00:18:48;;;;;;;15.70;11.23;;;;;13.50;96823.00;;;;5039679;28;20205;-76
2023/05/22 00:21:38;;;;;;;15.63;12.57;;;;;13.60;96830.00;;;;5040784;28;20218;-71
2023/05/22 00:24:27;;;;;;;13.10;11.67;;;;;13.70;96820.00;;;;5046649;28;20220;-73
2023/05/22 00:27:16;;;;;;;15.87;11.97;;;;;13.80;96820.00;;;;5036453;28;20233;-74
2023/05/22 00:30:10;;;;;;;16.37;11.33;;;;;14.00;96813.00;;;;5039507;28;20285;-74
2023/05/22 00:32:59;;;;;;;15.50;11.77;;;;;13.80;96814.00;;;;5045503;28;20209;-74
2023/05/22 00:35:48;;;;;;;12.23;10.13;;;;;13.80;96810.00;;;;5039985;28;20201;-72
2023/05/22 00:38:38;;;;;;;16.03;12.43;;;;;14.10;96810.00;;;;5040086;28;20204;-71
2023/05/22 00:41:27;;;;;;;16.73;12.20;;;;;14.10;96806.00;;;;5044562;28;20687;-68
2023/05/22 00:44:16;;;;;;;21.03;13.00;;;;;14.20;96805.00;;;;5041710;28;20235;-68
2023/05/22 00:47:06;;;;;;;14.43;11.67;;;;;14.20;96796.00;;;;5034193;28;20317;-69
2023/05/22 00:49:55;;;;;;;17.27;12.80;;;;;14.20;96789.00;;;;5046316;28;20228;-68
2023/05/22 00:52:46;;;;;;;16.17;11.23;;;;;14.30;96786.00;;;;5044302;28;20209;-69
2023/05/22 00:55:36;;;;;;;12.60;11.13;;;;;14.20;96786.00;;;;5032319;28;20202;-69
2023/05/22 00:58:27;;;;;;;18.63;11.77;;;;;14.10;96785.00;;;;5029232;28;20223;-69
2023/05/22 01:01:16;;;;;;;12.80;11.07;;;;;14.00;96782.00;;;;5044591;28;20219;-69
2023/05/22 01:04:06;;;;;;;12.63;10.17;;;;;13.60;96771.00;;;;5043662;28;20248;-72
2023/05/22 01:06:55;;;;;;;14.23;11.50;;;;;13.50;96773.00;;;;5041211;28;20213;-73
2023/05/22 01:09:45;;;;;;;11.67;10.00;;;;;13.90;96770.00;;;;5041972;28;20599;-73
2023/05/22 01:12:47;;;;;;;13.73;11.03;;;;;14.10;96780.00;;;;5039471;28;20208;-74
2023/05/22 01:15:40;;;;;;;14.60;10.87;;;;;13.80;96773.00;;;;5044811;28;20211;-73
2023/05/22 01:18:35;;;;;;;16.20;11.53;;;;;13.80;96780.00;;;;5038154;28;20201;-73
2023/05/22 01:21:31;;;;;;;13.40;12.00;;;;;13.80;96780.00;;;;5038581;28;20201;-73
2023/05/22 01:24:51;;;;;;;15.07;12.53;;;;;13.80;96777.00;;;;5040275;28;20220;-73
2023/05/22 01:28:06;;;;;;;15.63;11.80;;;;;13.50;96790.00;;;;5035892;28;20692;-73
2023/05/22 01:31:01;;;;;;;13.67;12.07;;;;;13.50;96783.00;;;;5042061;28;20204;-74
2023/05/22 01:33:53;;;;;;;13.73;12.17;;;;;13.60;96789.00;;;;5040290;28;20207;-73
2023/05/22 01:36:42;;;;;;;14.73;12.13;;;;;13.50;96784.00;;;;5042281;28;20925;-72
2023/05/22 01:39:32;;;;;;;12.27;11.00;;;;;13.50;96789.00;;;;5041746;28;20208;-76
2023/05/22 01:42:21;;;;;;;13.70;11.73;;;;;13.90;96779.00;;;;5041178;28;20207;-76
2023/05/22 01:45:11;;;;;;;14.77;11.77;;;;;13.90;96780.00;;;;5037816;28;20224;-72
2023/05/22 01:48:02;;;;;;;16.87;12.63;;;;;13.50;96782.00;;;;5035920;28;20221;-76
2023/05/22 01:50:52;;;;;;;13.43;11.97;;;;;13.80;96795.00;;;;5036839;28;20295;-73
2023/05/22 01:53:45;;;;;;;15.67;11.73;;;;;14.00;96788.00;;;;5038408;28;20223;-74
2023/05/22 01:56:39;;;;;;;14.60;12.67;;;;;14.20;96789.00;;;;5041643;28;20308;-73
2023/05/22 01:59:32;;;;;;;14.77;10.40;;;;;14.10;96796.00;;;;5039340;28;20227;-72
2023/05/22 02:02:23;;;;;;;13.80;11.07;;;;;13.60;96804.00;;;;5039968;28;20209;-74
2023/05/22 02:05:18;;;;;;;16.50;12.10;;;;;14.00;96805.00;;;;5032971;28;20228;-76
2023/05/22 02:08:07;;;;;;;13.37;11.77;;;;;14.50;96791.00;;;;5037187;28;20216;-77
2023/05/22 02:10:57;;;;;;;14.63;12.90;;;;;14.80;96784.00;;;;5042536;28;20819;-76
2023/05/22 02:13:46;;;;;;;13.27;11.87;;;;;14.70;96786.00;;;;5034878;28;20892;-77
2023/05/22 02:16:36;;;;;;;17.07;13.33;;;;;14.40;96777.00;;;;5040659;28;20719;-77
2023/05/22 02:19:26;;;;;;;13.40;12.00;;;;;14.70;96778.00;;;;5044165;28;20209;-77
2023/05/22 02:22:16;;;;;;;12.97;11.67;;;;;14.90;96777.00;;;;5038723;28;20200;-77
2023/05/22 02:25:08;;;;;;;17.10;11.30;;;;;14.90;96776.00;;;;5038852;28;20220;-77
2023/05/22 02:27:57;;;;;;;15.40;13.07;;;;;14.80;96764.00;;;;5037905;28;20235;-77
2023/05/22 02:30:46;;;;;;;12.73;11.40;;;;;14.80;96767.00;;;;5041558;28;20751;-77
2023/05/22 02:33:35;;;;;;;16.93;12.10;;;;;14.60;96765.00;;;;5044858;28;20200;-77
2023/05/22 02:36:25;;;;;;;12.93;10.30;;;;;14.40;96761.00;;;;5042964;28;20220;-74
2023/05/22 02:39:15;;;;;;;14.73;11.27;;;;;14.70;96767.00;;;;5034838;28;20208;-74
2023/05/22 02:42:04;;;;;;;12.67;11.37;;;;;14.70;96759.00;;;;5049165;28;20200;-74
2023/05/22 02:44:53;;;;;;;10.87;9.77;;;;;14.60;96759.00;;;;5040255;28;20225;-74
2023/05/22 02:47:42;;;;;;;12.20;10.20;;;;;14.40;96752.00;;;;5034411;28;20234;-74
2023/05/22 02:50:31;;;;;;;14.23;10.17;;;;;14.60;96755.00;;;;5034102;28;20201;-73
2023/05/22 02:53:20;;;;;;;12.57;10.73;;;;;14.50;96757.00;;;;5048722;28;20205;-74
2023/05/22 02:56:11;;;;;;;15.23;11.80;;;;;14.20;96758.00;;;;5047786;28;20221;-74
2023/05/22 02:59:00;;;;;;;13.00;10.97;;;;;14.00;96748.00;;;;5045521;28;20204;-74
2023/05/22 03:01:50;;;;;;;15.57;10.80;;;;;14.10;96758.00;;;;5044456;28;20193;-73
2023/05/22 03:04:39;;;;;;;16.40;11.60;;;;;13.40;96762.00;;;;5020319;28;20758;-76
2023/05/22 03:07:28;;;;;;;16.23;13.07;;;;;13.40;96760.00;;;;5033119;28;20717;-69
2023/05/22 03:10:18;;;;;;;16.50;11.83;;;;;13.30;96761.00;;;;5044266;28;20672;-76
2023/05/22 03:13:08;;;;;;;17.17;12.47;;;;;13.50;96759.00;;;;5035383;28;20212;-76
2023/05/22 03:15:58;;;;;;;16.03;13.47;;;;;13.60;96759.00;;;;5045753;28;20271;-73
2023/05/22 03:18:47;;;;;;;16.40;12.73;;;;;14.00;96758.00;;;;5029019;28;20582;-74
2023/05/22 03:21:36;;;;;;;14.50;11.87;;;;;13.90;96759.00;;;;5031394;28;20982;-74
2023/05/22 03:24:26;;;;;;;14.80;12.10;;;;;13.90;96771.00;;;;5036331;28;20220;-72
2023/05/22 03:27:16;;;;;;;14.43;12.00;;;;;13.60;96747.00;;;;5037588;28;20636;-72
2023/05/22 03:30:08;;;;;;;12.90;11.50;;;;;12.80;96753.00;;;;5042917;28;20575;-67
2023/05/22 03:32:57;;;;;;;13.83;11.70;;;;;12.90;96748.00;;;;5042108;28;20575;-71
2023/05/22 03:35:46;;;;;;;16.13;13.17;;;;;13.10;96747.00;;;;5040478;28;20203;-74
2023/05/22 03:38:35;;;;;;;15.07;12.20;;;;;13.40;96760.00;;;;5044821;28;20668;-73
2023/05/22 03:41:24;;;;;;;14.53;13.00;;;;;13.10;96754.00;;;;5041475;28;20209;-70
2023/05/22 03:44:13;;;;;;;14.10;12.53;;;;;13.20;96745.00;;;;5041047;28;20212;-75
2023/05/22 03:47:04;;;;;;;14.27;12.07;;;;;12.90;96742.00;;;;5046694;28;20601;-72
2023/05/22 03:49:53;;;;;;;13.37;11.83;;;;;12.70;96746.00;;;;5045625;28;20204;-76
2023/05/22 03:52:42;;;;;;;14.57;12.27;;;;;12.60;96734.00;;;;5038635;28;20203;-75
2023/05/22 03:55:31;;;;;;;15.07;12.70;;;;;12.70;96733.00;;;;5047990;28;20193;-69
2023/05/22 03:58:20;;;;;;;17.73;15.83;;;;;13.20;96740.00;;;;5045078;28;20193;-73
2023/05/22 04:01:10;;;;;;;15.33;13.83;;;;;13.40;96740.00;;;;5039859;28;20204;-73
2023/05/22 04:04:00;;;;;;;15.60;13.33;;;;;13.30;96728.00;;;;5041379;28;20207;-73
2023/05/22 04:06:50;;;;;;;17.23;12.93;;;;;13.40;96741.00;;;;5042113;28;20324;-71
2023/05/22 04:09:40;;;;;;;14.90;13.23;;;;;13.50;96734.00;;;;5048933;28;20209;-71
2023/05/22 04:12:29;;;;;;;17.70;13.50;;;;;13.30;96730.00;;;;5039461;28;20691;-72
2023/05/22 04:15:18;;;;;;;16.23;14.03;;;;;13.40;96740.00;;;;5041638;28;20695;-72
2023/05/22 04:18:07;;;;;;;17.43;12.17;;;;;13.30;96734.00;;;;5028690;28;20201;-69
2023/05/22 04:20:58;;;;;;;14.67;11.97;;;;;13.10;96733.00;;;;5026810;28;20201;-76
2023/05/22 04:23:48;;;;;;;16.17;12.03;;;;;13.10;96728.00;;;;5046738;28;20204;-69
2023/05/22 04:26:37;;;;;;;15.83;13.13;;;;;13.50;96731.00;;;;5029649;28;20229;-72
2023/05/22 04:29:27;;;;;;;15.43;13.30;;;;;13.80;96729.00;;;;5037976;28;20228;-72
2023/05/22 04:32:20;;;;;;;17.17;11.90;;;;;13.60;96729.00;;;;5035337;28;20200;-73
2023/05/22 04:35:11;;;;;;;17.27;12.50;;;;;13.60;96732.00;;;;5036065;28;20204;-74
2023/05/22 04:38:02;;;;;;;15.93;12.43;;;;;13.60;96731.00;;;;5042403;28;20233;-70
2023/05/22 04:40:51;;;;;;;15.57;12.80;;;;;14.20;96735.00;;;;5027893;28;20197;-71
2023/05/22 04:43:41;;;;;;;13.50;12.00;;;;;14.20;96727.00;;;;5025077;28;20202;-75
2023/05/22 04:46:30;;;;;;;15.70;13.27;;;;;14.20;96727.00;;;;5030634;28;20236;-70
2023/05/22 04:49:19;;;;;;;12.40;11.13;;;;;14.50;96732.00;;;;5027017;28;20192;-71
2023/05/22 04:52:10;;;;;;;14.63;13.13;;;;;14.60;96731.00;;;;5032597;28;20241;-72
2023/05/22 04:55:00;;;;;;;14.87;11.67;;;;;14.50;96726.00;;;;5030473;28;20689;-72
2023/05/22 04:57:51;;;;;;;14.30;12.80;;;;;14.70;96731.00;;;;5034146;28;20228;-76
2023/05/22 05:00:40;;;;;;;15.93;12.03;;;;;15.10;96729.00;;;;5041289;28;20208;-71
2023/05/22 05:03:29;;;;;;;13.67;11.70;;;;;15.00;96736.00;;;;5034024;28;20197;-70
2023/05/22 05:06:20;;;;;;;16.57;10.90;;;;;14.90;96733.00;;;;5031710;28;20224;-73
2023/05/22 05:09:09;;;;;;;15.07;12.30;;;;;15.20;96734.00;;;;5027105;28;20205;-72
2023/05/22 05:12:00;;;;;;;17.00;13.17;;;;;15.50;96744.00;;;;5036702;28;20213;-72
2023/05/22 05:14:49;;;;;;;16.53;13.20;;;;;15.70;96734.00;;;;5029163;28;20232;-73
2023/05/22 05:17:38;;;;;;;16.87;12.37;;;;;16.10;96746.00;;;;5038929;28;20216;-73
2023/05/22 05:20:28;;;;;;;18.50;13.33;;;;;16.30;96755.00;;;;5040679;28;20263;-73
2023/05/22 05:23:17;;;;;;;15.07;13.10;;;;;16.60;96741.00;;;;5035887;28;20206;-73
2023/05/22 05:26:06;;;;;;;14.10;12.43;;;;;17.10;96748.00;;;;5021622;28;20240;-74
2023/05/22 05:28:56;;;;;;;15.77;13.37;;;;;17.00;96746.00;;;;5022039;28;20562;-73
2023/05/22 05:31:46;;;;;;;13.77;12.30;;;;;17.10;96750.00;;;;5022626;28;20220;-73
2023/05/22 05:34:35;;;;;;;12.30;11.03;;;;;17.20;96745.00;;;;5019436;28;20205;-72
2023/05/22 05:37:24;;;;;;;17.20;12.90;;;;;17.10;96747.00;;;;5016150;28;20225;-71
2023/05/22 05:40:15;;;;;;;14.63;12.63;;;;;17.20;96744.00;;;;5023463;28;20205;-71
2023/05/22 05:43:04;;;;;;;15.20;11.93;;;;;17.10;96739.00;;;;5018720;28;20216;-73
2023/05/22 05:45:55;;;;;;;15.03;12.60;;;;;17.00;96744.00;;;;5025218;28;20201;-71
2023/05/22 05:48:45;;;;;;;15.40;12.87;;;;;17.40;96755.00;;;;5035344;28;20201;-71
2023/05/22 05:51:34;;;;;;;14.27;12.33;;;;;17.40;96749.00;;;;5039708;28;20201;-71
2023/05/22 05:54:25;;;;;;;16.50;12.73;;;;;18.20;96750.00;;;;5040776;28;20588;-71
2023/05/22 05:57:14;;;;;;;16.80;12.23;;;;;18.50;96762.00;;;;5040721;28;20227;-71
2023/05/22 06:00:05;;;;;;;14.63;12.33;;;;;18.50;96753.00;;;;5035829;28;20711;-72
2023/05/22 06:02:55;;;;;;;14.77;11.50;;;;;18.90;96753.00;;;;5041358;28;20204;-71
2023/05/22 06:05:45;;;;;;;17.60;11.67;;;;;18.90;96757.00;;;;5033148;28;20198;-72
2023/05/22 06:08:34;;;;;;;13.97;12.50;;;;;19.10;96753.00;;;;5022707;28;20207;-72
2023/05/22 06:11:23;;;;;;;13.93;12.03;;;;;19.10;96754.00;;;;5018591;28;20210;-71
2023/05/22 06:14:12;;;;;;;15.73;11.27;;;;;19.10;96757.00;;;;5021367;28;20197;-72
2023/05/22 06:17:01;;;;;;;15.13;11.33;;;;;19.00;96746.00;;;;5029353;28;20230;-73
2023/05/22 06:19:51;;;;;;;12.17;10.17;;;;;19.40;96747.00;;;;5030025;28;20282;-73
2023/05/22 06:22:40;;;;;;;13.20;10.73;;;;;19.90;96755.00;;;;5027056;28;20205;-73
2023/05/22 06:25:30;;;;;;;13.80;10.03;;;;;19.80;96746.00;;;;5029541;28;20202;-73
2023/05/22 06:28:19;;;;;;;15.30;12.17;;;;;19.90;96748.00;;;;5024147;28;20221;-73
2023/05/22 06:31:08;;;;;;;18.70;10.67;;;;;20.30;96757.00;;;;5027664;28;20209;-73
2023/05/22 06:33:57;;;;;;;15.33;10.57;;;;;20.50;96751.00;;;;5026094;28;20206;-73
2023/05/22 06:36:49;;;;;;;12.83;10.60;;;;;20.70;96746.00;;;;5038998;28;20696;-74
2023/05/22 06:39:38;;;;;;;14.83;10.77;;;;;20.60;96745.00;;;;5037985;28;20208;-74
2023/05/22 06:42:27;;;;;;;15.03;11.20;;;;;20.90;96745.00;;;;5045309;28;20671;-74
2023/05/22 06:45:18;;;;;;;16.67;10.43;;;;;21.10;96741.00;;;;5042941;28;20201;-74
2023/05/22 06:48:07;;;;;;;14.70;11.80;;;;;21.40;96746.00;;;;5031505;28;20637;-73
2023/05/22 06:50:56;;;;;;;11.43;9.73;;;;;21.40;96745.00;;;;5034342;28;20210;-73
2023/05/22 06:53:47;;;;;;;13.60;9.93;;;;;21.70;96740.00;;;;5039544;28;20595;-72
2023/05/22 06:56:36;;;;;;;16.23;10.73;;;;;21.80;96745.00;;;;5044954;28;20233;-73
2023/05/22 06:59:25;;;;;;;13.80;10.57;;;;;22.00;96741.00;;;;5040880;28;20208;-73
2023/05/22 07:02:14;;;;;;;12.13;9.87;;;;;22.30;96743.00;;;;5029396;28;20210;-72
2023/05/22 07:05:03;;;;;;;13.60;10.30;;;;;22.40;96741.00;;;;5047370;28;20209;-72
2023/05/22 07:07:52;;;;;;;11.83;10.53;;;;;22.50;96739.00;;;;5042579;28;20224;-72
2023/05/22 07:10:43;;;;;;;13.67;10.90;;;;;22.80;96743.00;;;;5011960;28;20202;-72
2023/05/22 07:13:32;;;;;;;12.07;10.00;;;;;22.90;96744.00;;;;5020307;28;20208;-72
2023/05/22 07:16:22;;;;;;;15.13;9.87;;;;;23.00;96739.00;;;;5023988;28;20223;-72
2023/05/22 07:19:11;;;;;;;17.23;10.57;;;;;23.20;96740.00;;;;5030363;28;20201;-73
2023/05/22 07:22:00;;;;;;;14.73;10.53;;;;;23.30;96735.00;;;;5022079;28;20263;-72
2023/05/22 07:24:49;;;;;;;11.00;9.33;;;;;23.50;96734.00;;;;5019285;28;20221;-72
2023/05/22 07:27:39;;;;;;;15.23;9.60;;;;;23.70;96729.00;;;;5021333;28;20230;-72
2023/05/22 07:30:28;;;;;;;9.53;8.27;;;;;23.90;96730.00;;;;5016231;28;20205;-72
2023/05/22 07:33:17;;;;;;;12.00;8.57;;;;;24.20;96740.00;;;;5024921;28;20197;-72
2023/05/22 07:36:07;;;;;;;14.37;10.03;;;;;24.30;96727.00;;;;5034033;28;20221;-72
2023/05/22 07:38:56;;;;;;;11.87;9.60;;;;;24.30;96739.00;;;;5021165;28;20202;-72
2023/05/22 07:41:49;;;;;;;12.70;9.17;;;;;24.50;96741.00;;;;5025347;28;20198;-72
2023/05/22 07:44:40;;;;;;;10.90;8.27;;;;;24.60;96733.00;;;;5019626;28;20205;-73
2023/05/22 07:47:29;;;;;;;14.10;9.83;;;;;24.90;96727.00;;;;5020309;28;20226;-72
2023/05/22 07:50:18;;;;;;;13.83;9.60;;;;;25.20;96739.00;;;;5022083;28;20700;-72
2023/05/22 07:53:08;;;;;;;10.63;8.30;;;;;25.30;96736.00;;;;5025783;28;20206;-72
2023/05/22 07:55:57;;;;;;;9.23;7.93;;;;;25.60;96740.00;;;;5021956;28;20202;-72
2023/05/22 07:58:47;;;;;;;9.10;8.20;;;;;25.70;96730.00;;;;5023835;28;20206;-72
2023/05/22 08:01:38;;;;;;;9.67;8.30;;;;;25.80;96734.00;;;;5018979;28;20202;-72
2023/05/22 08:04:28;;;;;;;9.27;8.23;;;;;26.10;96733.00;;;;5022386;28;20595;-72
2023/05/22 08:07:17;;;;;;;7.63;6.93;;;;;25.90;96740.00;;;;5025189;28;20229;-72
2023/05/22 08:10:17;;;;;;;8.57;7.13;;;;;26.20;96729.00;;;;5015835;28;20205;-72
2023/05/22 08:13:06;;;;;;;7.97;6.93;;;;;26.30;96729.00;;;;5019324;28;20209;-71
2023/05/22 08:15:55;;;;;;;8.70;7.60;;;;;26.30;96729.00;;;;5024360;28;20208;-72
2023/05/22 08:18:46;;;;;;;12.40;8.60;;;;;26.70;96728.00;;;;5022611;28;20212;-72
2023/05/22 08:21:36;;;;;;;10.10;7.57;;;;;26.70;96721.00;;;;5026223;28;20206;-72
2023/05/22 08:24:27;;;;;;;11.83;7.37;;;;;26.80;96721.00;;;;5021760;28;20212;-72
2023/05/22 08:27:16;;;;;;;8.97;6.80;;;;;25.90;96715.00;;;;5020200;28;20248;-73
2023/05/22 08:30:06;;;;;;;9.67;7.30;;;;;26.20;96717.00;;;;5015750;28;20201;-72
2023/05/22 08:32:55;;;;;;;9.50;6.93;;;;;26.50;96716.00;;;;5024010;28;20214;-72
2023/05/22 08:35:46;;;;;;;10.60;6.67;;;;;27.00;96717.00;;;;5028194;28;20574;-71
2023/05/22 08:38:35;;;;;;;7.13;6.43;;;;;27.00;96712.00;;;;5018590;28;20579;-71
2023/05/22 08:41:24;;;;;;;10.23;6.77;;;;;27.00;96720.00;;;;5021672;28;20202;-71
2023/05/22 08:44:13;;;;;;;8.73;6.50;;;;;27.50;96716.00;;;;5013424;28;20208;-71
2023/05/22 08:47:04;;;;;;;11.43;7.40;;;;;27.60;96720.00;;;;5015570;28;20238;-72
2023/05/22 08:49:56;;;;;;;7.40;6.60;;;;;27.80;96712.00;;;;5013176;28;20214;-71
2023/05/22 08:52:52;;;;;;;6.60;5.60;;;;;27.30;96707.00;;;;5017343;28;20206;-71
2023/05/22 08:55:41;;;;;;;6.80;6.17;;;;;27.70;96709.00;;;;5016006;28;20667;-70
2023/05/22 08:58:30;;;;;;;7.00;4.93;;;;;26.20;96708.00;;;;5018864;28;20195;-76
2023/05/22 09:01:19;;;;;;;9.10;6.13;;;;;27.30;96700.00;;;;5029677;28;20205;-77
2023/05/22 09:04:09;;;;;;;6.67;5.80;;;;;27.80;96706.00;;;;5030709;28;20202;-76
2023/05/22 09:07:04;;;;;;;6.60;5.77;;;;;28.10;96707.00;;;;5023849;28;20234;-73
2023/05/22 09:09:54;;;;;;;8.27;5.50;;;;;27.60;96706.00;;;;5027886;28;20651;-72
2023/05/22 09:13:02;;;;;;;6.40;4.97;;;;;28.60;96704.00;;;;5031078;28;20681;-72
2023/05/22 09:15:51;;;;;;;5.63;4.67;;;;;29.00;96705.00;;;;5036724;28;20194;-71
2023/05/22 09:18:41;;;;;;;5.60;4.43;;;;;28.10;96707.00;;;;5031508;28;20210;-73
2023/05/22 09:21:30;;;;;;;9.27;5.20;;;;;28.00;96705.00;;;;5024646;28;20290;-72
2023/05/22 09:24:20;;;;;;;5.30;3.90;;;;;27.90;96701.00;;;;5028478;28;20201;-74
2023/05/22 09:27:11;;;;;;;4.43;4.03;;;;;29.00;96706.00;;;;5023952;28;20234;-74
2023/05/22 09:30:00;;;;;;;6.93;4.43;;;;;29.60;96702.00;;;;5023566;28;20230;-73
2023/05/22 09:32:49;;;;;;;5.77;5.23;;;;;29.80;96702.00;;;;5024954;28;20208;-73
2023/05/22 09:35:40;;;;;;;4.90;4.47;;;;;30.00;96701.00;;;;5018771;28;20260;-71
2023/05/22 09:38:30;;;;;;;5.63;4.83;;;;;30.60;96695.00;;;;5022982;28;20225;-72
2023/05/22 09:41:22;;;;;;;4.57;4.17;;;;;30.60;96695.00;;;;5038219;28;20202;-70
2023/05/22 09:44:16;;;;;;;5.20;4.50;;;;;29.40;96684.00;;;;5035113;28;20719;-70
2023/05/22 09:47:07;;;;;;;5.33;4.83;;;;;27.70;96688.00;;;;5038786;28;20222;-70
2023/05/22 09:49:58;;;;;;;6.57;4.80;;;;;29.20;96688.00;;;;5040432;28;20217;-69
2023/05/22 09:52:48;;;;;;;22.17;6.60;;;;;30.20;96685.00;;;;5033225;28;20215;-70
2023/05/22 09:55:37;;;;;;;5.67;4.27;;;;;29.60;96691.00;;;;5034289;28;20212;-71
2023/05/22 09:58:28;;;;;;;12.07;5.00;;;;;28.40;96685.00;;;;5034806;28;20200;-72
2023/05/22 10:01:19;;;;;;;5.80;4.87;;;;;29.50;96679.00;;;;5033456;28;20209;-72
2023/05/22 10:04:13;;;;;;;5.20;4.70;;;;;30.50;96685.00;;;;5033742;28;20197;-71
2023/05/22 10:07:03;;;;;;;6.63;4.67;;;;;29.70;96679.00;;;;5028128;28;20229;-71
2023/05/22 10:09:57;;;;;;;5.93;5.30;;;;;29.70;96678.00;;;;5034678;28;20226;-73
2023/05/22 10:12:51;;;;;;;7.57;5.33;;;;;29.90;96666.00;;;;5038155;28;20208;-73
2023/05/22 10:15:41;;;;;;;5.73;5.27;;;;;27.80;96647.00;;;;5042712;28;20213;-66
2023/05/22 10:18:32;;;;;;;6.47;5.40;;;;;27.00;96656.00;;;;5039078;28;20198;-68
2023/05/22 10:21:21;;;;;;;5.63;5.07;;;;;26.70;96630.00;;;;5042203;28;20208;-68
2023/05/22 10:24:11;;;;;;;6.63;5.07;;;;;26.30;96638.00;;;;5036218;28;20294;-78
2023/05/22 10:27:00;;;;;;;6.80;5.00;;;;;26.90;96636.00;;;;5041677;28;20234;-66
2023/05/22 10:29:53;;;;;;;8.67;5.07;;;;;27.00;96660.00;;;;5041281;28;20253;-68
2023/05/22 10:32:44;;;;;;;8.23;5.87;;;;;27.80;96637.00;;;;5037161;28;20212;-70
2023/05/22 10:35:41;;;;;;;8.13;5.00;;;;;27.90;96631.00;;;;5046307;28;20663;-68
2023/05/22 10:38:47;;;;;;;8.50;4.90;;;;;27.80;96629.00;;;;5023976;28;20604;-67
2023/05/22 10:41:36;;;;;;;5.60;4.80;;;;;28.70;96643.00;;;;5026571;28;20210;-66
2023/05/22 10:44:25;;;;;;;7.57;5.47;;;;;30.10;96637.00;;;;5019235;28;20215;-69
2023/05/22 10:47:15;;;;;;;5.57;4.73;;;;;31.20;96641.00;;;;5023127;28;20239;-69
2023/05/22 10:50:07;;;;;;;5.20;4.70;;;;;31.70;96622.00;;;;5022116;28;20633;-68
2023/05/22 10:53:22;;;;;;;8.67;5.10;;;;;30.30;96632.00;;;;5021696;28;20214;-73
2023/05/22 10:56:13;;;;;;;4.97;4.43;;;;;28.40;96669.00;;;;5021995;28;20227;-66
2023/05/22 10:59:03;;;;;;;4.73;4.33;;;;;28.90;96620.00;;;;5034224;28;20203;-78
2023/05/22 11:02:01;;;;;;;4.67;4.23;;;;;31.00;96617.00;;;;5031949;28;20203;-75
2023/05/22 11:04:50;;;;;;;5.35;4.43;;;;;31.00;96615.00;;;;5030625;28;20397;-74
2023/05/22 11:07:41;;;;;;;4.67;4.27;;;;;31.40;96614.00;;;;5027457;28;20700;-73
2023/05/22 11:10:53;;;;;;;6.87;4.37;;;;;29.70;96610.00;;;;5031418;28;20232;-75
2023/05/22 11:13:43;;;;;;;8.20;4.00;;;;;29.40;96604.00;;;;5031164;28;20207;-76
2023/05/22 11:16:33;;;;;;;6.50;4.63;;;;;30.50;96603.00;;;;5026964;28;20239;-73
2023/05/22 11:19:22;;;;;;;6.47;4.40;;;;;31.00;96602.00;;;;5024915;28;20219;-72
2023/05/22 11:22:12;;;;;;;5.70;4.00;;;;;32.70;96596.00;;;;5021973;28;20323;-72
2023/05/22 11:25:06;;;;;;;4.43;3.40;;;;;33.00;96608.00;;;;5022988;28;20597;-71
2023/05/22 11:27:56;;;;;;;5.07;3.70;;;;;33.00;96594.00;;;;5027698;28;20240;-70
2023/05/22 11:30:45;;;;;;;5.55;3.85;;;;;32.70;96590.00;;;;5031794;28;20230;-74
2023/05/22 11:33:34;;;;;;;6.30;3.92;;;;;32.70;96594.00;;;;5020914;28;20209;-75
2023/05/22 11:36:24;;;;;;;6.55;3.20;;;;;32.60;96585.00;;;;5028815;28;20227;-67
2023/05/22 11:39:15;;;;;;;4.68;3.17;;;;;31.10;96571.00;;;;5029580;28;20579;-66
2023/05/22 11:42:05;;;;;;;5.28;4.43;;;;;33.50;96569.00;;;;5033030;28;20206;-69
2023/05/22 11:44:56;;;;;;;4.90;4.28;;;;;33.40;96571.00;;;;5026807;28;20207;-70
2023/05/22 11:47:45;;;;;;;9.00;4.15;;;;;33.70;96572.00;;;;5033916;28;20239;-67
2023/05/22 11:50:34;;;;;;;4.53;4.03;;;;;34.50;96574.00;;;;5033528;28;20230;-66
2023/05/22 11:53:31;;;;;;;5.85;3.75;;;;;34.10;96580.00;;;;5029867;28;20235;-69
2023/05/22 11:56:22;;;;;;;4.75;3.45;;;;;33.30;96588.00;;;;5032901;28;20212;-70
2023/05/22 11:59:11;;;;;;;4.30;3.60;;;;;33.70;96579.00;;;;5026634;28;20203;-68
2023/05/22 12:02:01;;;;;;;6.47;4.00;;;;;33.70;96573.00;;;;5027606;28;20585;-68
2023/05/22 12:04:55;;;;;;;3.17;2.88;;;;;34.60;96562.00;;;;5031391;28;20204;-70
2023/05/22 12:07:44;;;;;;;4.40;3.30;;;;;34.40;96559.00;;;;5030454;28;20813;-67
2023/05/22 12:10:33;;;;;;;5.03;3.20;;;;;34.90;96565.00;;;;5027330;28;20225;-67
2023/05/22 12:13:24;;;;;;;3.83;2.72;;;;;35.70;96571.00;;;;5026690;28;20209;-66
2023/05/22 12:16:21;;;;;;;4.35;3.58;;;;;35.20;96568.00;;;;5030178;28;20228;-73
2023/05/22 12:19:12;;;;;;;3.42;3.13;;;;;33.30;96560.00;;;;5020530;28;20231;-71
2023/05/22 12:22:04;;;;;;;4.10;3.33;;;;;33.60;96570.00;;;;5024148;28;20206;-75
2023/05/22 12:24:54;;;;;;;3.75;3.40;;;;;35.90;96573.00;;;;5027585;28;20697;-72
2023/05/22 12:27:44;;;;;;;4.00;3.60;;;;;36.60;96573.00;;;;5024611;28;20244;-72
2023/05/22 12:30:40;;;;;;;4.93;3.10;;;;;35.80;96570.00;;;;5024174;28;20221;-71
2023/05/22 12:33:30;;;;;;;6.00;2.90;;;;;35.90;96566.00;;;;5023270;28;20752;-71
2023/05/22 12:36:21;;;;;;;4.05;3.63;;;;;35.70;96558.00;;;;5022649;28;20221;-69
2023/05/22 12:39:10;;;;;;;3.53;3.10;;;;;37.10;96558.00;;;;5021796;28;20231;-69
2023/05/22 12:42:00;;;;;;;8.95;4.43;;;;;37.50;96560.00;;;;5025059;28;20212;-69
2023/05/22 12:44:50;;;;;;;3.20;2.75;;;;;37.70;96559.00;;;;5023656;28;20404;-70
2023/05/22 12:47:39;;;;;;;6.53;3.20;;;;;37.60;96553.00;;;;5018480;28;21105;-71
2023/05/22 12:50:29;;;;;;;4.80;3.33;;;;;37.60;96558.00;;;;5025059;28;20254;-70
2023/05/22 12:53:20;;;;;;;4.88;4.05;;;;;36.90;96571.00;;;;5029276;28;20583;-73
2023/05/22 12:56:09;;;;;;;4.00;3.60;;;;;37.30;96571.00;;;;5030513;28;20216;-72
2023/05/22 12:58:58;;;;;;;3.38;3.08;;;;;34.90;96554.00;;;;5024159;28;20231;-71
2023/05/22 13:01:47;;;;;;;3.80;3.15;;;;;34.70;96564.00;;;;5028693;28;20209;-76
2023/05/22 13:04:36;;;;;;;3.80;3.28;;;;;32.90;96559.00;;;;5035146;28;20208;-74
2023/05/22 13:07:25;;;;;;;3.22;2.92;;;;;35.70;96551.00;;;;5022696;28;20624;-73
2023/05/22 13:10:16;;;;;;;5.22;3.03;;;;;36.70;96559.00;;;;5020651;28;20224;-71
2023/05/22 13:13:05;;;;;;;8.35;3.65;;;;;37.30;96584.00;;;;5026880;28;20216;-72
2023/05/22 13:15:54;;;;;;;5.22;3.75;;;;;37.70;96559.00;;;;5028472;28;20677;-72
2023/05/22 13:18:43;;;;;;;5.47;3.03;;;;;37.50;96554.00;;;;5022915;28;20573;-72
2023/05/22 13:21:32;;;;;;;5.78;2.80;;;;;36.70;96554.00;;;;5022071;28;20228;-71
2023/05/22 13:24:21;;;;;;;7.07;3.53;;;;;37.80;96558.00;;;;5026590;28;20204;-72
2023/05/22 13:27:11;;;;;;;4.68;3.67;;;;;38.10;96543.00;;;;5028265;28;20711;-72
2023/05/22 13:30:00;;;;;;;6.28;3.70;;;;;38.20;96544.00;;;;5027450;28;20201;-71
2023/05/22 13:32:50;;;;;;;3.83;3.33;;;;;38.00;96545.00;;;;5024199;28;20209;-71
2023/05/22 13:35:39;;;;;;;3.53;3.22;;;;;33.90;96547.00;;;;5023508;28;20783;-70
2023/05/22 13:38:28;;;;;;;3.85;3.42;;;;;33.30;96529.00;;;;5022689;28;20207;-71
2023/05/22 13:41:17;;;;;;;4.10;3.70;;;;;34.10;96533.00;;;;5026854;28;20221;-73
2023/05/22 13:44:08;;;;;;;3.65;3.10;;;;;31.90;96523.00;;;;5025548;28;20197;-77
2023/05/22 13:46:57;;;;;;;5.53;3.33;;;;;33.10;96534.00;;;;5027296;28;20220;-71
2023/05/22 13:49:46;;;;;;;4.82;3.55;;;;;34.90;96531.00;;;;5032619;28;20206;-73
2023/05/22 13:52:35;;;;;;;3.90;3.58;;;;;35.90;96575.00;;;;5018842;28;20204;-73
2023/05/22 13:55:24;;;;;;;4.38;3.50;;;;;35.00;96595.00;;;;5015075;28;20700;-73
2023/05/22 13:58:13;;;;;;;3.72;3.40;;;;;35.40;96539.00;;;;5021322;28;20206;-72
2023/05/22 14:01:03;;;;;;;4.80;4.07;;;;;36.00;96527.00;;;;5019450;28;20232;-73
2023/05/22 14:03:53;;;;;;;6.75;4.18;;;;;36.70;96528.00;;;;5019122;28;20260;-71